Time;durP1;ratioP1;P1;durP2;ratioP2;P2;SDS_P1;SDS_P2;PMS_P1;PMS_P2;Temp;Humidity;BMP_temperature;BMP_pressure;BME280_temperature;BME280_humidity;BME280_pressure;Samples;Min_cycle;Max_cycle;Signal;HPM_P1;HPM_P2
2023/06/07 00:02:19;;;;;;;;;;;;;;;;;;5050757;28;19919;-69
2023/06/07 00:04:45;;;;;;;;;;;;;;;;;;5051113;28;19913;-69
2023/06/07 00:08:45;;;;;;;;;;;;;;;;;;5091179;27;20394;-69
2023/06/07 00:11:11;;;;;;;;;;;;;;;;;;5090074;28;19916;-69
2023/06/07 00:13:37;;;;;;;;;;;;;;;;;;5091598;28;19908;-70
2023/06/07 00:16:03;;;;;;;;;;;;;;;;;;5090902;28;19954;-70
2023/06/07 00:18:28;;;;;;;;;;;;;;;;;;5090033;28;20411;-70
2023/06/07 00:23:06;;;;;;;;;;;;;;;;;;5091103;27;19917;-69
2023/06/07 00:25:32;;;;;;;;;;;;;;;;;;5091438;28;20007;-69
2023/06/07 00:27:58;;;;;;;;;;;;;;;;;;5091322;28;19916;-69
2023/06/07 00:30:23;;;;;;;;;;;;;;;;;;5090924;28;19915;-69
2023/06/07 00:32:49;;;;;;;;;;;;;;;;;;5091279;28;20372;-69
2023/06/07 00:36:06;;;;;;;;;;;;;;;;;;5051068;28;19921;-69
2023/06/07 00:38:54;;;;;;;;;;;;;;;;;;5174075;27;19911;-69
2023/06/07 00:42:16;;;;;;;;;;;;;;;;;;5091251;27;19916;-69
2023/06/07 00:46:11;;;;;;;;;;;;;;;;;;5153450;27;20006;-69
2023/06/07 00:49:17;;;;;;;;;;;;;;;;;;5092256;27;19916;-69
2023/06/07 00:51:43;;;;;;;;;;;;;;;;;;5091690;28;19918;-69
2023/06/07 00:54:09;;;;;;;;;;;;;;;;;;5091302;28;19999;-69
2023/06/07 00:56:35;;;;;;;;;;;;;;;;;;5090913;28;19909;-69
2023/06/07 00:59:01;;;;;;;;;;;;;;;;;;5091156;28;19912;-69
2023/06/07 01:01:27;;;;;;;;;;;;;;;;;;5091773;28;20433;-69
2023/06/07 01:03:53;;;;;;;;;;;;;;;;;;5090789;28;20364;-69
2023/06/07 01:08:53;;;;;;;;;;;;;;;;;;5091779;27;19919;-70
2023/06/07 01:11:20;;;;;;;;;;;;;;;;;;5090991;28;19919;-70
2023/06/07 01:13:46;;;;;;;;;;;;;;;;;;5091337;28;19999;-70
2023/06/07 01:18:09;;;;;;;;;;;;;;;;;;5091276;27;19939;-69
2023/06/07 01:23:59;;;;;;;;;;;;;;;;;;5091777;27;19916;-70
2023/06/07 01:26:26;;;;;;;;;;;;;;;;;;5091025;28;19912;-69
2023/06/07 01:33:33;;;;;;;;;;;;;;;;;;5091133;27;19916;-69
2023/06/07 01:35:59;;;;;;;;;;;;;;;;;;5090120;28;20007;-69
2023/06/07 01:40:38;;;;;;;;;;;;;;;;;;5091100;27;19912;-69
2023/06/07 01:43:04;;;;;;;;;;;;;;;;;;5091413;28;19955;-69
2023/06/07 01:45:30;;;;;;;;;;;;;;;;;;5091300;28;19912;-69
2023/06/07 01:49:43;;;;;;;;;;;;;;;;;;5092118;27;20265;-69
2023/06/07 01:52:09;;;;;;;;;;;;;;;;;;5091287;28;20007;-69
2023/06/07 01:57:11;;;;;;;;;;;;;;;;;;5091747;27;19916;-69
2023/06/07 01:59:37;;;;;;;;;;;;;;;;;;5091364;28;20003;-69
2023/06/07 02:02:03;;;;;;;;;;;;;;;;;;5091320;28;20268;-69
2023/06/07 02:04:29;;;;;;;;;;;;;;;;;;5091293;28;20003;-69
2023/06/07 02:06:55;;;;;;;;;;;;;;;;;;5090784;28;19909;-69
2023/06/07 02:16:51;;;;;;;;;;;;;;;;;;5092157;27;19919;-69
2023/06/07 02:19:17;;;;;;;;;;;;;;;;;;5091397;28;20003;-69
2023/06/07 02:21:43;;;;;;;;;;;;;;;;;;5089538;28;20334;-71
2023/06/07 02:24:09;;;;;;;;;;;;;;;;;;5091292;28;19935;-70
2023/06/07 02:26:35;;;;;;;;;;;;;;;;;;5091249;28;19908;-70
2023/06/07 02:29:02;;;;;;;;;;;;;;;;;;5090780;28;19908;-70
2023/06/07 02:31:28;;;;;;;;;;;;;;;;;;5091480;28;19969;-71
2023/06/07 02:34:15;;;;;;;;;;;;;;;;;;5092023;27;19922;-69
2023/06/07 02:36:41;;;;;;;;;;;;;;;;;;5090939;28;20006;-69
2023/06/07 02:39:07;;;;;;;;;;;;;;;;;;5091527;28;19961;-69
2023/06/07 02:41:33;;;;;;;;;;;;;;;;;;5091290;28;19909;-69
2023/06/07 02:43:59;;;;;;;;;;;;;;;;;;5090716;28;20357;-69
2023/06/07 02:46:25;;;;;;;;;;;;;;;;;;5091184;28;19912;-69
2023/06/07 02:48:51;;;;;;;;;;;;;;;;;;5090940;28;20352;-69
2023/06/07 02:53:34;;;;;;;;;;;;;;;;;;5091926;28;19923;-69
2023/06/07 02:56:00;;;;;;;;;;;;;;;;;;5091072;28;19999;-68
2023/06/07 02:58:27;;;;;;;;;;;;;;;;;;5091914;28;19908;-70
2023/06/07 03:00:54;;;;;;;;;;;;;;;;;;5091296;28;19909;-70
2023/06/07 03:03:20;;;;;;;;;;;;;;;;;;5090805;28;19944;-70
2023/06/07 03:05:48;;;;;;;;;;;;;;;;;;5089947;28;19939;-70
2023/06/07 03:13:33;;;;;;;;;;;;;;;;;;5092236;27;19918;-71
2023/06/07 03:15:59;;;;;;;;;;;;;;;;;;5091398;28;20455;-69
2023/06/07 03:18:46;;;;;;;;;;;;;;;;;;5091312;27;19917;-70
2023/06/07 03:21:12;;;;;;;;;;;;;;;;;;5091466;28;20023;-71
2023/06/07 03:23:38;;;;;;;;;;;;;;;;;;5091379;28;19908;-70
2023/06/07 03:26:05;;;;;;;;;;;;;;;;;;5090967;28;20368;-69
2023/06/07 03:29:27;;;;;;;;;;;;;;;;;;5091755;27;19923;-69
2023/06/07 03:31:53;;;;;;;;;;;;;;;;;;5091158;28;20007;-70
2023/06/07 03:36:25;;;;;;;;;;;;;;;;;;5091750;27;19923;-71
2023/06/07 03:38:51;;;;;;;;;;;;;;;;;;5089729;28;20395;-71
2023/06/07 03:41:17;;;;;;;;;;;;;;;;;;5091343;28;19908;-71
2023/06/07 03:43:43;;;;;;;;;;;;;;;;;;5091881;28;19914;-71
2023/06/07 03:46:09;;;;;;;;;;;;;;;;;;5090905;28;19912;-71
2023/06/07 03:48:36;;;;;;;;;;;;;;;;;;5091274;28;19909;-71
2023/06/07 03:51:02;;;;;;;;;;;;;;;;;;5091377;28;20005;-70
2023/06/07 03:53:28;;;;;;;;;;;;;;;;;;5090786;28;19962;-71
2023/06/07 03:55:54;;;;;;;;;;;;;;;;;;5091032;28;19923;-70
2023/06/07 03:58:20;;;;;;;;;;;;;;;;;;5090989;28;19966;-69
2023/06/07 04:00:46;;;;;;;;;;;;;;;;;;5090650;28;19912;-71
2023/06/07 04:03:12;;;;;;;;;;;;;;;;;;5091075;28;19908;-71
2023/06/07 04:05:38;;;;;;;;;;;;;;;;;;5090870;28;19915;-70
2023/06/07 04:08:05;;;;;;;;;;;;;;;;;;5090448;28;20038;-71
2023/06/07 04:10:31;;;;;;;;;;;;;;;;;;5090812;28;20386;-71
2023/06/07 04:12:57;;;;;;;;;;;;;;;;;;5090722;28;20003;-70
2023/06/07 04:15:23;;;;;;;;;;;;;;;;;;5090209;28;19916;-70
2023/06/07 04:20:33;;;;;;;;;;;;;;;;;;5132243;27;20302;-70
2023/06/07 04:23:00;;;;;;;;;;;;;;;;;;5132291;27;19998;-70
2023/06/07 04:25:26;;;;;;;;;;;;;;;;;;5132206;27;19998;-70
2023/06/07 04:28:47;;;;;;;;;;;;;;;;;;5091212;27;20386;-70
2023/06/07 04:31:14;;;;;;;;;;;;;;;;;;5091363;28;19999;-70
2023/06/07 04:33:40;;;;;;;;;;;;;;;;;;5091256;28;20391;-70
2023/06/07 04:37:03;;;;;;;;;;;;;;;;;;5091593;27;19916;-70
2023/06/07 04:39:29;;;;;;;;;;;;;;;;;;5091507;28;20379;-70
2023/06/07 04:41:55;;;;;;;;;;;;;;;;;;5089562;28;19954;-71
2023/06/07 04:44:28;;;;;;;;;;;;;;;;;;5091497;28;19909;-70
2023/06/07 04:46:56;;;;;;;;;;;;;;;;;;5091878;28;20399;-70
2023/06/07 04:49:23;;;;;;;;;;;;;;;;;;5090827;28;20008;-70
2023/06/07 04:51:50;;;;;;;;;;;;;;;;;;5091178;28;19956;-71
2023/06/07 04:59:02;;;;;;;;;;;;;;;;;;5153571;27;19915;-70
2023/06/07 05:01:28;;;;;;;;;;;;;;;;;;5152942;27;20345;-71
2023/06/07 05:03:54;;;;;;;;;;;;;;;;;;5133988;27;20327;-71
2023/06/07 05:06:20;;;;;;;;;;;;;;;;;;5152869;27;19947;-70
2023/06/07 05:10:00;;;;;;;;;;;;;;;;;;5091110;27;19917;-70
2023/06/07 05:12:26;;;;;;;;;;;;;;;;;;5090042;28;20283;-70
2023/06/07 05:14:52;;;;;;;;;;;;;;;;;;5091103;28;19908;-70
2023/06/07 05:17:19;;;;;;;;;;;;;;;;;;5090709;28;20387;-70
2023/06/07 05:19:45;;;;;;;;;;;;;;;;;;5090979;28;20368;-70
2023/06/07 05:24:28;;;;;;;;;;;;;;;;;;5085923;27;19931;-66
2023/06/07 05:26:54;;;;;;;;;;;;;;;;;;5094016;28;19916;-65
2023/06/07 05:29:21;;;;;;;;;;;;;;;;;;5098824;28;19935;-65
2023/06/07 05:31:47;;;;;;;;;;;;;;;;;;5092572;28;19908;-67
2023/06/07 05:34:13;;;;;;;;;;;;;;;;;;5098450;28;19965;-65
2023/06/07 05:36:39;;;;;;;;;;;;;;;;;;5091205;28;19944;-64
2023/06/07 05:39:05;;;;;;;;;;;;;;;;;;5072046;28;19924;-66
2023/06/07 05:41:31;;;;;;;;;;;;;;;;;;5088128;28;19916;-64
2023/06/07 05:43:57;;;;;;;;;;;;;;;;;;5083347;28;19921;-64
2023/06/07 05:46:23;;;;;;;;;;;;;;;;;;5082753;28;19912;-64
2023/06/07 05:51:16;;;;;;;;;;;;;;;;;;5101958;27;19926;-65
2023/06/07 05:53:42;;;;;;;;;;;;;;;;;;5101855;28;19912;-65
2023/06/07 05:56:10;;;;;;;;;;;;;;;;;;5080637;28;19920;-65
2023/06/07 05:58:35;;;;;;;;;;;;;;;;;;5098350;28;19912;-66
2023/06/07 06:01:34;;;;;;;;;;;;;;;;;;4997896;27;4158223;-66
2023/06/07 06:04:01;;;;;;;;;;;;;;;;;;5147676;27;19988;-67
2023/06/07 06:08:02;;;;;;;;;;;;;;;;;;5107748;27;20477;-66
2023/06/07 06:10:28;;;;;;;;;;;;;;;;;;5109468;28;19918;-65
2023/06/07 06:12:55;;;;;;;;;;;;;;;;;;5109831;28;19963;-66
2023/06/07 06:16:12;;;;;;;;;;;;;;;;;;5111225;27;19920;-66
2023/06/07 06:20:04;;;;;;;;;;;;;;;;;;5096917;28;20520;-66
2023/06/07 06:23:05;;;;;;;;;;;;;;;;;;5151948;27;19911;-66
2023/06/07 06:25:31;;;;;;;;;;;;;;;;;;5152332;27;20022;-66
2023/06/07 06:27:57;;;;;;;;;;;;;;;;;;5143606;27;19934;-65
2023/06/07 06:30:26;;;;;;;;;;;;;;;;;;5140383;27;20363;-66
2023/06/07 06:32:52;;;;;;;;;;;;;;;;;;5149896;27;19956;-66
2023/06/07 06:35:18;;;;;;;;;;;;;;;;;;5138603;27;19911;-66
2023/06/07 06:37:43;;;;;;;;;;;;;;;;;;5138789;27;19911;-65
2023/06/07 06:42:32;;;;;;;;;;;;;;;;;;5090001;27;19916;-67
2023/06/07 06:44:58;;;;;;;;;;;;;;;;;;5089450;28;19913;-66
2023/06/07 06:47:25;;;;;;;;;;;;;;;;;;5086840;28;20402;-66
2023/06/07 06:49:53;;;;;;;;;;;;;;;;;;5088863;28;19922;-66
2023/06/07 06:52:19;;;;;;;;;;;;;;;;;;5090649;28;19966;-66
2023/06/07 06:54:45;;;;;;;;;;;;;;;;;;5090515;28;19912;-66
2023/06/07 06:57:11;;;;;;;;;;;;;;;;;;5087314;28;19940;-67
2023/06/07 06:59:37;;;;;;;;;;;;;;;;;;5087870;28;19916;-67
2023/06/07 07:02:03;;;;;;;;;;;;;;;;;;5080267;28;19980;-65
2023/06/07 07:06:44;;;;;;;;;;;;;;;;;;5087065;27;19916;-64
2023/06/07 07:09:09;;;;;;;;;;;;;;;;;;5085958;28;19912;-65
2023/06/07 07:11:35;;;;;;;;;;;;;;;;;;5085958;28;19908;-64
2023/06/07 07:14:01;;;;;;;;;;;;;;;;;;5084515;28;20375;-64
2023/06/07 07:16:27;;;;;;;;;;;;;;;;;;5086585;28;19916;-64
2023/06/07 07:18:53;;;;;;;;;;;;;;;;;;5088159;28;19912;-64
2023/06/07 07:22:30;;;;;;;;;;;;;;;;;;5085722;27;19924;-65
2023/06/07 07:24:57;;;;;;;;;;;;;;;;;;5081806;28;19948;-65
2023/06/07 07:27:23;;;;;;;;;;;;;;;;;;5073444;28;19923;-65
2023/06/07 07:29:49;;;;;;;;;;;;;;;;;;5067283;28;19909;-65
2023/06/07 07:32:15;;;;;;;;;;;;;;;;;;5067381;28;19913;-66
2023/06/07 07:34:42;;;;;;;;;;;;;;;;;;5067018;28;19920;-65
2023/06/07 07:39:31;;;;;;;;;;;;;;;;;;5066292;28;19924;-66
2023/06/07 07:41:57;;;;;;;;;;;;;;;;;;5065528;28;19916;-64
2023/06/07 07:44:23;;;;;;;;;;;;;;;;;;5067518;28;19999;-64
2023/06/07 07:46:49;;;;;;;;;;;;;;;;;;5063106;28;19959;-64
2023/06/07 07:49:15;;;;;;;;;;;;;;;;;;5069471;28;19909;-65
2023/06/07 07:51:41;;;;;;;;;;;;;;;;;;5069706;28;19909;-65
2023/06/07 07:54:45;;;;;;;;;;;;;;;;;;5136924;27;19926;-63
2023/06/07 07:57:12;;;;;;;;;;;;;;;;;;5128744;28;19957;-64
2023/06/07 07:59:38;;;;;;;;;;;;;;;;;;5122836;27;19915;-64
2023/06/07 08:02:05;;;;;;;;;;;;;;;;;;5129134;27;19908;-66
2023/06/07 08:04:31;;;;;;;;;;;;;;;;;;5118544;27;19912;-67
2023/06/07 08:06:57;;;;;;;;;;;;;;;;;;5125424;28;20349;-67
2023/06/07 08:09:23;;;;;;;;;;;;;;;;;;5127909;27;19946;-66
2023/06/07 08:11:49;;;;;;;;;;;;;;;;;;5118055;28;20013;-65
2023/06/07 08:14:18;;;;;;;;;;;;;;;;;;5107677;28;19920;-66
2023/06/07 08:17:13;;;;;;;;;;;;;;;;;;5129893;27;19943;-65
2023/06/07 08:19:39;;;;;;;;;;;;;;;;;;5127142;28;19960;-64
2023/06/07 08:22:05;;;;;;;;;;;;;;;;;;5122608;28;20638;-64
2023/06/07 08:24:31;;;;;;;;;;;;;;;;;;5126512;28;19951;-65
2023/06/07 08:26:57;;;;;;;;;;;;;;;;;;5073715;28;19916;-65
2023/06/07 08:29:25;;;;;;;;;;;;;;;;;;5120995;28;19920;-65
2023/06/07 08:31:51;;;;;;;;;;;;;;;;;;5114129;28;20321;-65
2023/06/07 08:34:17;;;;;;;;;;;;;;;;;;5123409;28;20342;-65
2023/06/07 08:36:43;;;;;;;;;;;;;;;;;;5107606;28;19959;-67
2023/06/07 08:39:09;;;;;;;;;;;;;;;;;;5090387;28;19908;-67
2023/06/07 08:41:35;;;;;;;;;;;;;;;;;;5104837;28;19923;-67
2023/06/07 08:44:01;;;;;;;;;;;;;;;;;;5107566;28;19912;-66
2023/06/07 08:48:41;;;;;;;;;;;;;;;;;;5114286;27;20315;-66
2023/06/07 08:51:07;;;;;;;;;;;;;;;;;;5111740;28;19981;-65
2023/06/07 08:53:33;;;;;;;;;;;;;;;;;;5114331;28;19916;-66
2023/06/07 08:56:00;;;;;;;;;;;;;;;;;;5118342;27;20390;-66
2023/06/07 08:58:26;;;;;;;;;;;;;;;;;;5124853;28;20006;-66
2023/06/07 09:00:53;;;;;;;;;;;;;;;;;;5110390;27;19999;-66
2023/06/07 09:03:19;;;;;;;;;;;;;;;;;;5122545;28;19911;-66
2023/06/07 09:05:45;;;;;;;;;;;;;;;;;;5119457;27;19961;-66
2023/06/07 09:08:11;;;;;;;;;;;;;;;;;;5120999;28;20406;-67
2023/06/07 09:10:36;;;;;;;;;;;;;;;;;;5127727;27;19908;-67
2023/06/07 09:13:02;;;;;;;;;;;;;;;;;;5123397;28;19916;-66
2023/06/07 09:15:28;;;;;;;;;;;;;;;;;;5108603;28;19958;-66
2023/06/07 09:17:54;;;;;;;;;;;;;;;;;;5114278;28;19911;-66
2023/06/07 09:20:20;;;;;;;;;;;;;;;;;;5129410;27;19919;-65
2023/06/07 09:22:46;;;;;;;;;;;;;;;;;;5115826;27;20303;-66
2023/06/07 09:25:12;;;;;;;;;;;;;;;;;;5108195;28;19908;-66
2023/06/07 09:27:38;;;;;;;;;;;;;;;;;;5105445;28;20368;-67
2023/06/07 09:30:05;;;;;;;;;;;;;;;;;;5124637;27;19919;-67
2023/06/07 09:32:31;;;;;;;;;;;;;;;;;;5106466;27;20418;-68
2023/06/07 09:34:56;;;;;;;;;;;;;;;;;;5107988;28;19912;-67
2023/06/07 09:37:22;;;;;;;;;;;;;;;;;;5104805;28;20461;-67
2023/06/07 09:39:50;;;;;;;;;;;;;;;;;;5122660;27;20308;-67
2023/06/07 09:42:16;;;;;;;;;;;;;;;;;;5123684;28;19915;-68
2023/06/07 09:44:42;;;;;;;;;;;;;;;;;;5124758;27;19912;-69
2023/06/07 09:47:08;;;;;;;;;;;;;;;;;;5126420;27;19958;-66
2023/06/07 09:49:34;;;;;;;;;;;;;;;;;;5125009;27;20370;-67
2023/06/07 09:52:00;;;;;;;;;;;;;;;;;;5124913;27;19947;-67
2023/06/07 09:54:27;;;;;;;;;;;;;;;;;;5111918;28;19931;-67
2023/06/07 09:56:53;;;;;;;;;;;;;;;;;;5110419;28;19912;-67
2023/06/07 09:59:19;;;;;;;;;;;;;;;;;;5100217;28;19946;-67
2023/06/07 10:01:45;;;;;;;;;;;;;;;;;;5098175;28;19994;-68
2023/06/07 10:04:11;;;;;;;;;;;;;;;;;;5093464;28;19943;-67
2023/06/07 10:06:38;;;;;;;;;;;;;;;;;;5095522;28;19916;-67
2023/06/07 10:09:04;;;;;;;;;;;;;;;;;;5107302;28;20012;-67
2023/06/07 10:11:30;;;;;;;;;;;;;;;;;;5109688;28;19951;-68
2023/06/07 10:13:56;;;;;;;;;;;;;;;;;;5097896;28;19942;-66
2023/06/07 10:16:22;;;;;;;;;;;;;;;;;;5096334;28;19908;-66
2023/06/07 10:18:48;;;;;;;;;;;;;;;;;;5092836;28;19947;-67
2023/06/07 10:21:15;;;;;;;;;;;;;;;;;;5092962;28;19920;-66
2023/06/07 10:23:41;;;;;;;;;;;;;;;;;;5093941;28;20400;-67
2023/06/07 10:26:07;;;;;;;;;;;;;;;;;;5090663;28;19959;-68
2023/06/07 10:28:33;;;;;;;;;;;;;;;;;;5089252;28;19990;-66
2023/06/07 10:31:03;;;;;;;;;;;;;;;;;;5089773;28;19908;-66
2023/06/07 10:33:56;;;;;;;;;;;;;;;;;;5110173;27;20495;-65
2023/06/07 10:36:23;;;;;;;;;;;;;;;;;;5106400;28;20007;-66
2023/06/07 10:38:49;;;;;;;;;;;;;;;;;;5106751;28;20270;-65
2023/06/07 10:41:15;;;;;;;;;;;;;;;;;;5104245;28;19912;-67
2023/06/07 10:43:46;;;;;;;;;;;;;;;;;;5098297;28;19917;-66
2023/06/07 10:46:12;;;;;;;;;;;;;;;;;;5102853;28;19908;-68
2023/06/07 10:48:39;;;;;;;;;;;;;;;;;;5102270;28;20386;-67
2023/06/07 10:51:05;;;;;;;;;;;;;;;;;;5091434;28;19908;-67
2023/06/07 10:53:31;;;;;;;;;;;;;;;;;;5096743;28;19931;-66
2023/06/07 10:55:57;;;;;;;;;;;;;;;;;;5101679;28;19912;-67
2023/06/07 10:58:24;;;;;;;;;;;;;;;;;;5085240;28;19912;-67
2023/06/07 11:00:50;;;;;;;;;;;;;;;;;;5091303;28;19958;-67
2023/06/07 11:03:16;;;;;;;;;;;;;;;;;;5101547;28;20344;-67
2023/06/07 11:05:43;;;;;;;;;;;;;;;;;;5105691;28;19908;-68
2023/06/07 11:08:09;;;;;;;;;;;;;;;;;;5100437;28;20014;-68
2023/06/07 11:10:35;;;;;;;;;;;;;;;;;;5092127;28;19916;-68
2023/06/07 11:13:01;;;;;;;;;;;;;;;;;;5107766;28;19961;-68
2023/06/07 11:15:36;;;;;;;;;;;;;;;;;;5109537;28;19916;-68
2023/06/07 11:18:04;;;;;;;;;;;;;;;;;;5105493;28;19920;-68
2023/06/07 11:20:30;;;;;;;;;;;;;;;;;;5107608;28;19912;-68
2023/06/07 11:22:56;;;;;;;;;;;;;;;;;;5107781;28;19919;-68
2023/06/07 11:25:22;;;;;;;;;;;;;;;;;;5108232;28;19977;-68
2023/06/07 11:27:48;;;;;;;;;;;;;;;;;;5106813;28;20217;-68
2023/06/07 11:30:14;;;;;;;;;;;;;;;;;;5100656;28;20007;-68
2023/06/07 11:32:42;;;;;;;;;;;;;;;;;;5089912;28;20388;-68
2023/06/07 11:35:08;;;;;;;;;;;;;;;;;;5088805;28;19914;-68
2023/06/07 11:37:35;;;;;;;;;;;;;;;;;;5088823;28;19999;-68
2023/06/07 11:40:01;;;;;;;;;;;;;;;;;;5098957;28;20353;-67
2023/06/07 11:42:27;;;;;;;;;;;;;;;;;;5105873;28;19921;-68
2023/06/07 11:44:53;;;;;;;;;;;;;;;;;;5084617;28;19982;-67
2023/06/07 11:47:19;;;;;;;;;;;;;;;;;;5087335;28;19959;-68
2023/06/07 11:49:45;;;;;;;;;;;;;;;;;;5087284;28;20276;-67
2023/06/07 11:52:11;;;;;;;;;;;;;;;;;;5095761;28;20217;-67
2023/06/07 11:54:37;;;;;;;;;;;;;;;;;;5079818;28;20281;-67
2023/06/07 11:57:03;;;;;;;;;;;;;;;;;;5078662;28;19923;-69
2023/06/07 11:59:29;;;;;;;;;;;;;;;;;;5073995;28;19916;-68
2023/06/07 12:01:55;;;;;;;;;;;;;;;;;;5076030;28;20348;-67
2023/06/07 12:04:21;;;;;;;;;;;;;;;;;;5074662;28;19916;-66
2023/06/07 12:06:49;;;;;;;;;;;;;;;;;;5080992;28;19920;-67
2023/06/07 12:09:15;;;;;;;;;;;;;;;;;;5094401;28;20065;-67
2023/06/07 12:11:41;;;;;;;;;;;;;;;;;;5087932;28;20415;-68
2023/06/07 12:14:09;;;;;;;;;;;;;;;;;;5074312;28;19936;-67
2023/06/07 12:16:38;;;;;;;;;;;;;;;;;;5074603;28;19915;-67
2023/06/07 12:19:04;;;;;;;;;;;;;;;;;;5073883;28;19942;-68
2023/06/07 12:21:30;;;;;;;;;;;;;;;;;;5082177;28;20459;-67
2023/06/07 12:23:56;;;;;;;;;;;;;;;;;;5082641;28;20403;-67
2023/06/07 12:26:22;;;;;;;;;;;;;;;;;;5074346;28;19913;-67
2023/06/07 12:28:48;;;;;;;;;;;;;;;;;;5074981;28;20007;-67
2023/06/07 12:31:14;;;;;;;;;;;;;;;;;;5084785;28;20515;-70
2023/06/07 12:33:40;;;;;;;;;;;;;;;;;;5085648;28;19978;-69
2023/06/07 12:36:06;;;;;;;;;;;;;;;;;;5089207;28;20359;-64
2023/06/07 12:38:32;;;;;;;;;;;;;;;;;;5093205;28;19912;-64
2023/06/07 12:40:58;;;;;;;;;;;;;;;;;;5080949;28;20014;-64
2023/06/07 12:43:24;;;;;;;;;;;;;;;;;;5074990;28;19999;-64
2023/06/07 12:45:50;;;;;;;;;;;;;;;;;;5073930;28;19916;-67
2023/06/07 12:48:16;;;;;;;;;;;;;;;;;;5078780;28;19912;-66
2023/06/07 12:50:42;;;;;;;;;;;;;;;;;;5089367;28;20352;-67
2023/06/07 12:53:07;;;;;;;;;;;;;;;;;;5094778;28;19923;-67
2023/06/07 12:55:33;;;;;;;;;;;;;;;;;;5093179;28;19958;-66
2023/06/07 12:58:00;;;;;;;;;;;;;;;;;;5086758;28;20073;-68
2023/06/07 13:00:25;;;;;;;;;;;;;;;;;;5093942;28;20411;-70
2023/06/07 13:02:52;;;;;;;;;;;;;;;;;;5093271;28;20009;-70
2023/06/07 13:05:18;;;;;;;;;;;;;;;;;;5095406;28;19915;-70
2023/06/07 13:07:44;;;;;;;;;;;;;;;;;;5089084;28;19923;-68
2023/06/07 13:10:10;;;;;;;;;;;;;;;;;;5094097;28;19908;-69
2023/06/07 13:12:36;;;;;;;;;;;;;;;;;;5094666;28;20282;-69
2023/06/07 13:15:02;;;;;;;;;;;;;;;;;;5094757;28;20257;-71
2023/06/07 13:17:28;;;;;;;;;;;;;;;;;;5094970;28;19916;-70
2023/06/07 13:19:54;;;;;;;;;;;;;;;;;;5095136;28;19912;-70
2023/06/07 13:22:21;;;;;;;;;;;;;;;;;;5094573;28;19922;-70
2023/06/07 13:24:47;;;;;;;;;;;;;;;;;;5093976;28;20279;-70
2023/06/07 13:27:13;;;;;;;;;;;;;;;;;;5094891;28;19908;-69
2023/06/07 13:29:39;;;;;;;;;;;;;;;;;;5094443;28;20359;-70
2023/06/07 13:32:05;;;;;;;;;;;;;;;;;;5094376;28;19920;-69
2023/06/07 13:34:31;;;;;;;;;;;;;;;;;;5093521;28;19957;-69
2023/06/07 13:36:56;;;;;;;;;;;;;;;;;;5094326;28;19912;-69
2023/06/07 13:39:22;;;;;;;;;;;;;;;;;;5094658;28;19908;-69
2023/06/07 13:41:48;;;;;;;;;;;;;;;;;;5094600;28;19915;-69
2023/06/07 13:44:15;;;;;;;;;;;;;;;;;;5094176;28;19963;-70
2023/06/07 13:46:40;;;;;;;;;;;;;;;;;;5094462;28;19908;-71
2023/06/07 13:49:06;;;;;;;;;;;;;;;;;;5094492;28;19931;-71
2023/06/07 13:51:35;;;;;;;;;;;;;;;;;;5094011;28;19999;-71
2023/06/07 13:54:01;;;;;;;;;;;;;;;;;;5094444;28;19909;-70
2023/06/07 13:56:28;;;;;;;;;;;;;;;;;;5094420;28;19923;-70
2023/06/07 13:58:54;;;;;;;;;;;;;;;;;;5093943;28;19942;-70
2023/06/07 14:01:20;;;;;;;;;;;;;;;;;;5094595;28;19951;-70
2023/06/07 14:03:45;;;;;;;;;;;;;;;;;;5094204;28;19908;-69
2023/06/07 14:06:11;;;;;;;;;;;;;;;;;;5093824;28;19912;-70
2023/06/07 14:08:37;;;;;;;;;;;;;;;;;;5094075;28;19908;-70
2023/06/07 14:11:04;;;;;;;;;;;;;;;;;;5094207;28;19915;-71
2023/06/07 14:13:30;;;;;;;;;;;;;;;;;;5093727;28;19916;-70
2023/06/07 14:15:55;;;;;;;;;;;;;;;;;;5094166;28;19953;-70
2023/06/07 14:18:21;;;;;;;;;;;;;;;;;;5093957;28;20367;-70
2023/06/07 14:20:47;;;;;;;;;;;;;;;;;;5094072;28;20418;-69
2023/06/07 14:23:13;;;;;;;;;;;;;;;;;;5094256;28;20272;-70
2023/06/07 14:25:39;;;;;;;;;;;;;;;;;;5093590;28;20002;-70
2023/06/07 14:28:05;;;;;;;;;;;;;;;;;;5093977;28;19908;-71
2023/06/07 14:30:31;;;;;;;;;;;;;;;;;;5093032;28;19912;-71
2023/06/07 14:32:57;;;;;;;;;;;;;;;;;;5093086;28;19927;-69
2023/06/07 14:35:23;;;;;;;;;;;;;;;;;;5092592;28;19930;-71
2023/06/07 14:37:49;;;;;;;;;;;;;;;;;;5094380;28;19912;-71
2023/06/07 14:40:15;;;;;;;;;;;;;;;;;;5092223;28;19953;-71
2023/06/07 14:42:41;;;;;;;;;;;;;;;;;;5093851;28;19912;-71
2023/06/07 14:45:07;;;;;;;;;;;;;;;;;;5094056;28;19915;-70
2023/06/07 14:47:33;;;;;;;;;;;;;;;;;;5093514;28;20384;-70
2023/06/07 14:49:59;;;;;;;;;;;;;;;;;;5093780;28;19908;-70
2023/06/07 14:52:25;;;;;;;;;;;;;;;;;;5093605;28;19966;-70
2023/06/07 14:54:51;;;;;;;;;;;;;;;;;;5093620;28;19908;-70
2023/06/07 14:57:17;;;;;;;;;;;;;;;;;;5093687;28;20279;-70
2023/06/07 14:59:43;;;;;;;;;;;;;;;;;;5093599;28;19908;-70
2023/06/07 15:02:09;;;;;;;;;;;;;;;;;;5093011;28;19908;-70
2023/06/07 15:04:35;;;;;;;;;;;;;;;;;;5093585;28;19943;-70
2023/06/07 15:07:01;;;;;;;;;;;;;;;;;;5093277;28;19920;-70
2023/06/07 15:09:27;;;;;;;;;;;;;;;;;;5092940;28;19915;-70
2023/06/07 15:11:53;;;;;;;;;;;;;;;;;;5093305;28;20383;-69
2023/06/07 15:14:19;;;;;;;;;;;;;;;;;;5093369;28;19919;-71
2023/06/07 15:16:45;;;;;;;;;;;;;;;;;;5092959;28;20456;-71
2023/06/07 15:19:11;;;;;;;;;;;;;;;;;;5094620;28;19953;-71
2023/06/07 15:21:37;;;;;;;;;;;;;;;;;;5095392;28;19908;-71
2023/06/07 15:24:03;;;;;;;;;;;;;;;;;;5097025;28;19931;-71
2023/06/07 15:26:29;;;;;;;;;;;;;;;;;;5096957;28;19915;-70
2023/06/07 15:28:55;;;;;;;;;;;;;;;;;;5095263;28;19955;-71
2023/06/07 15:31:21;;;;;;;;;;;;;;;;;;5097027;28;19909;-71
2023/06/07 15:33:47;;;;;;;;;;;;;;;;;;5096687;28;19920;-70
2023/06/07 15:36:12;;;;;;;;;;;;;;;;;;5096488;28;19908;-70
2023/06/07 15:38:38;;;;;;;;;;;;;;;;;;5096968;28;19908;-70
2023/06/07 15:41:04;;;;;;;;;;;;;;;;;;5096995;28;19912;-71
2023/06/07 15:43:30;;;;;;;;;;;;;;;;;;5096547;28;19915;-69
2023/06/07 15:45:56;;;;;;;;;;;;;;;;;;5097051;28;19998;-69
2023/06/07 15:48:25;;;;;;;;;;;;;;;;;;5096855;28;19915;-71
2023/06/07 15:50:51;;;;;;;;;;;;;;;;;;5096423;28;19915;-70
2023/06/07 15:53:17;;;;;;;;;;;;;;;;;;5096654;28;19916;-70
2023/06/07 15:55:43;;;;;;;;;;;;;;;;;;5096692;28;20052;-70
2023/06/07 15:58:09;;;;;;;;;;;;;;;;;;5096240;28;19908;-70
2023/06/07 16:00:35;;;;;;;;;;;;;;;;;;5096627;28;19908;-70
2023/06/07 16:03:01;;;;;;;;;;;;;;;;;;5096610;28;20352;-70
2023/06/07 16:05:27;;;;;;;;;;;;;;;;;;5096055;28;19912;-70
2023/06/07 16:07:53;;;;;;;;;;;;;;;;;;5095121;28;19922;-70
2023/06/07 16:10:19;;;;;;;;;;;;;;;;;;5095153;28;20368;-70
2023/06/07 16:12:45;;;;;;;;;;;;;;;;;;5095864;28;19920;-70
2023/06/07 16:15:11;;;;;;;;;;;;;;;;;;5096334;28;20279;-71
2023/06/07 16:17:37;;;;;;;;;;;;;;;;;;5096211;28;20364;-70
2023/06/07 16:20:03;;;;;;;;;;;;;;;;;;5094496;28;19915;-70
2023/06/07 16:22:29;;;;;;;;;;;;;;;;;;5096175;28;20023;-70
2023/06/07 16:24:56;;;;;;;;;;;;;;;;;;5095694;28;20363;-69
2023/06/07 16:27:22;;;;;;;;;;;;;;;;;;5096069;28;19976;-69
2023/06/07 16:29:48;;;;;;;;;;;;;;;;;;5096089;28;20415;-70
2023/06/07 16:32:14;;;;;;;;;;;;;;;;;;5093945;28;19924;-70
2023/06/07 16:34:40;;;;;;;;;;;;;;;;;;5096236;28;19908;-70
2023/06/07 16:37:06;;;;;;;;;;;;;;;;;;5096009;28;20383;-70
2023/06/07 16:39:32;;;;;;;;;;;;;;;;;;5095506;28;20387;-70
2023/06/07 16:41:58;;;;;;;;;;;;;;;;;;5095898;28;20378;-69
2023/06/07 16:44:24;;;;;;;;;;;;;;;;;;5095953;28;20344;-70
2023/06/07 16:46:55;;;;;;;;;;;;;;;;;;5095373;28;19936;-71
2023/06/07 16:49:23;;;;;;;;;;;;;;;;;;5095896;28;19962;-69
2023/06/07 16:51:49;;;;;;;;;;;;;;;;;;5095836;28;19908;-71
2023/06/07 16:54:15;;;;;;;;;;;;;;;;;;5093984;28;19923;-70
2023/06/07 16:56:41;;;;;;;;;;;;;;;;;;5094217;28;19912;-70
2023/06/07 16:59:07;;;;;;;;;;;;;;;;;;5095770;28;19915;-69
2023/06/07 17:01:34;;;;;;;;;;;;;;;;;;5095165;28;19916;-70
2023/06/07 17:04:00;;;;;;;;;;;;;;;;;;5095712;28;19916;-70
2023/06/07 17:06:26;;;;;;;;;;;;;;;;;;5095335;28;19908;-70
2023/06/07 17:08:52;;;;;;;;;;;;;;;;;;5094929;28;19908;-70
2023/06/07 17:11:17;;;;;;;;;;;;;;;;;;5095230;28;19948;-70
2023/06/07 17:13:44;;;;;;;;;;;;;;;;;;5095156;28;19916;-70
2023/06/07 17:16:11;;;;;;;;;;;;;;;;;;5094830;28;19922;-69
2023/06/07 17:18:37;;;;;;;;;;;;;;;;;;5093776;28;19969;-70
2023/06/07 17:21:04;;;;;;;;;;;;;;;;;;5094819;28;20371;-69
2023/06/07 17:23:30;;;;;;;;;;;;;;;;;;5094978;28;19908;-70
2023/06/07 17:25:56;;;;;;;;;;;;;;;;;;5095011;28;19915;-69
2023/06/07 17:28:22;;;;;;;;;;;;;;;;;;5094543;28;20335;-72
2023/06/07 17:30:49;;;;;;;;;;;;;;;;;;5095500;28;20346;-70
2023/06/07 17:33:15;;;;;;;;;;;;;;;;;;5094581;28;19924;-69
2023/06/07 17:35:41;;;;;;;;;;;;;;;;;;5094363;28;19999;-70
2023/06/07 17:38:07;;;;;;;;;;;;;;;;;;5094696;28;19908;-70
2023/06/07 17:40:33;;;;;;;;;;;;;;;;;;5093435;28;19908;-70
2023/06/07 17:42:59;;;;;;;;;;;;;;;;;;5093729;28;19908;-70
2023/06/07 17:45:26;;;;;;;;;;;;;;;;;;5094582;28;20424;-70
2023/06/07 17:47:51;;;;;;;;;;;;;;;;;;5094674;28;19908;-70
2023/06/07 17:50:17;;;;;;;;;;;;;;;;;;5094043;28;20002;-69
2023/06/07 17:52:44;;;;;;;;;;;;;;;;;;5094991;28;19916;-69
2023/06/07 17:55:09;;;;;;;;;;;;;;;;;;5094553;28;19909;-69
2023/06/07 18:02:49;;;;;;;;;;;;;;;;;;5152507;27;19915;-68